Time;durP1;ratioP1;P1;durP2;ratioP2;P2;SDS_P1;SDS_P2;PMS_P1;PMS_P2;Temp;Humidity;BMP_temperature;BMP_pressure;BME280_temperature;BME280_humidity;BME280_pressure;Samples;Min_cycle;Max_cycle;Signal;HPM_P1;HPM_P2
2022/03/21 00:00:05;;;;;;;40.28;22.70;;;;;;;3.44;65.69;103217.09;4919185;29;20020;-73
2022/03/21 00:02:51;;;;;;;38.88;22.17;;;;;;;3.78;63.56;103221.44;4919602;29;20036;-73
2022/03/21 00:05:37;;;;;;;41.78;22.73;;;;;;;3.50;65.71;103213.09;4919032;29;20116;-73
2022/03/21 00:08:24;;;;;;;39.60;22.70;;;;;;;3.64;65.40;103213.81;4918843;29;20047;-72
2022/03/21 00:11:10;;;;;;;42.15;22.10;;;;;;;3.75;64.81;103213.53;4919218;29;20461;-73
2022/03/21 00:13:56;;;;;;;36.28;21.40;;;;;;;3.43;66.90;103218.81;4919341;29;20106;-72
2022/03/21 00:16:43;;;;;;;40.47;22.42;;;;;;;3.21;69.35;103207.25;4905296;29;20032;-73
2022/03/21 00:19:29;;;;;;;39.47;23.30;;;;;;;3.44;68.29;103207.63;4918649;29;20091;-73
2022/03/21 00:22:14;;;;;;;40.97;23.67;;;;;;;3.56;68.50;103208.25;4904856;29;20111;-73
2022/03/21 00:25:00;;;;;;;44.85;24.85;;;;;;;3.49;67.94;103200.06;4918582;29;20043;-74
2022/03/21 00:27:46;;;;;;;47.65;25.52;;;;;;;3.75;66.95;103204.88;4905300;29;20055;-74
2022/03/21 00:30:32;;;;;;;51.92;27.70;;;;;;;3.46;68.78;103203.38;4905504;29;20464;-73
2022/03/21 00:33:18;;;;;;;52.67;27.33;;;;;;;3.17;70.08;103203.59;4919013;29;20075;-74
2022/03/21 00:36:05;;;;;;;49.00;26.10;;;;;;;2.93;71.52;103202.31;4918877;29;20063;-73
2022/03/21 00:38:51;;;;;;;53.03;26.08;;;;;;;3.35;70.01;103203.66;4905234;29;20024;-73
2022/03/21 00:41:37;;;;;;;48.80;25.80;;;;;;;3.64;68.09;103204.34;4904765;29;20024;-74
2022/03/21 00:44:22;;;;;;;48.22;26.67;;;;;;;3.75;66.80;103200.59;4918686;29;20380;-72
2022/03/21 00:47:08;;;;;;;52.30;27.75;;;;;;;3.24;68.16;103190.16;4904965;29;20032;-73
2022/03/21 00:49:54;;;;;;;51.15;26.73;;;;;;;3.26;68.04;103191.13;4918661;29;20036;-72
2022/03/21 00:52:51;;;;;;;51.85;27.05;;;;;;;3.34;67.78;103191.53;4918968;29;20422;-73
2022/03/21 00:55:37;;;;;;;52.10;28.63;;;;;;;3.51;67.00;103188.09;4919146;29;20048;-73
2022/03/21 00:58:23;;;;;;;61.13;31.35;;;;;;;3.20;67.85;103193.41;4918986;29;20123;-72
2022/03/21 01:01:08;;;;;;;56.40;30.73;;;;;;;3.24;69.34;103186.69;4918638;29;20043;-74
2022/03/21 01:03:54;;;;;;;50.47;27.60;;;;;;;3.10;69.50;103188.56;4918912;29;20040;-73
2022/03/21 01:06:40;;;;;;;51.03;29.42;;;;;;;3.10;70.93;103196.31;4918323;29;20413;-73
2022/03/21 01:09:25;;;;;;;53.25;28.58;;;;;;;3.13;70.18;103186.13;4918439;29;20032;-73
2022/03/21 01:12:11;;;;;;;56.05;29.27;;;;;;;3.26;70.70;103183.34;4904198;29;20110;-74
2022/03/21 01:14:57;;;;;;;51.83;28.40;;;;;;;3.55;68.52;103188.31;4918779;29;20123;-73
2022/03/21 01:17:45;;;;;;;53.80;28.88;;;;;;;3.06;72.08;103178.84;4918189;29;20036;-74
2022/03/21 01:20:30;;;;;;;54.33;28.90;;;;;;;3.35;71.44;103182.94;4907441;29;20024;-73
2022/03/21 01:23:16;;;;;;;61.33;30.27;;;;;;;3.53;69.14;103176.97;4921712;29;20318;-73
2022/03/21 01:26:02;;;;;;;58.15;29.42;;;;;;;3.18;70.38;103178.59;4922305;29;20051;-73
2022/03/21 01:28:48;;;;;;;63.20;31.83;;;;;;;3.11;71.42;103180.00;4907982;29;20028;-74
2022/03/21 01:31:34;;;;;;;55.47;30.45;;;;;;;3.34;70.56;103181.16;4907841;29;20027;-73
2022/03/21 01:34:19;;;;;;;57.50;31.70;;;;;;;3.45;70.79;103179.97;4907897;29;20024;-73
2022/03/21 01:37:05;;;;;;;63.85;35.08;;;;;;;3.25;70.12;103180.69;4921408;29;20107;-73
2022/03/21 01:39:53;;;;;;;65.25;36.30;;;;;;;3.29;71.59;103178.34;4921793;29;20074;-73
2022/03/21 01:42:43;;;;;;;66.10;36.15;;;;;;;3.24;70.79;103182.41;4921270;29;20095;-74
2022/03/21 01:45:29;;;;;;;61.78;34.30;;;;;;;2.99;72.35;103171.59;4921871;29;20039;-73
2022/03/21 01:48:15;;;;;;;66.63;36.03;;;;;;;2.87;73.07;103170.06;4921388;29;20068;-73
2022/03/21 01:51:01;;;;;;;67.10;35.03;;;;;;;2.92;72.87;103169.50;4921658;29;20126;-73
2022/03/21 01:56:52;;;;;;;63.15;34.42;;;;;;;3.03;73.63;103160.59;4921402;29;20028;-73
2022/03/21 01:59:39;;;;;;;70.30;37.22;;;;;;;3.14;71.84;103166.31;4921051;29;20070;-74
2022/03/21 02:02:25;;;;;;;70.85;37.08;;;;;;;3.13;71.95;103168.00;4908189;29;20445;-73
2022/03/21 02:05:11;;;;;;;72.10;38.28;;;;;;;2.90;74.18;103165.91;4921861;29;20038;-72
2022/03/21 02:07:56;;;;;;;69.88;36.42;;;;;;;3.05;73.33;103166.72;4922092;29;20126;-73
2022/03/21 02:10:43;;;;;;;63.35;35.60;;;;;;;3.29;71.27;103167.97;4921572;29;20040;-74
2022/03/21 02:13:29;;;;;;;69.30;35.88;;;;;;;3.04;73.58;103167.53;4921182;29;20396;-72
2022/03/21 02:16:15;;;;;;;63.55;34.63;;;;;;;3.38;70.38;103167.56;4921395;29;20450;-73
2022/03/21 02:19:20;;;;;;;66.65;34.63;;;;;;;3.23;72.58;103165.09;4920697;29;20032;-73
2022/03/21 02:22:28;;;;;;;69.95;35.80;;;;;;;2.86;77.12;103163.97;4921085;29;20485;-73
2022/03/21 02:25:34;;;;;;;72.70;36.70;;;;;;;3.07;76.28;103164.22;4920676;29;20130;-73
2022/03/21 02:28:20;;;;;;;67.97;36.72;;;;;;;2.78;75.46;103160.09;4920982;29;20028;-72
2022/03/21 02:31:06;;;;;;;66.05;34.08;;;;;;;2.88;76.35;103169.22;4906076;29;20091;-73
2022/03/21 02:33:54;;;;;;;65.18;34.20;;;;;;;2.97;75.88;103167.16;4920583;29;20020;-73
2022/03/21 02:36:40;;;;;;;61.20;33.42;;;;;;;3.02;76.38;103166.53;4920876;29;20356;-73
2022/03/21 02:39:28;;;;;;;61.25;33.58;;;;;;;3.11;77.64;103168.75;4907570;29;20028;-73
2022/03/21 02:42:14;;;;;;;61.83;33.40;;;;;;;3.05;77.90;103161.53;4906569;29;20122;-73
2022/03/21 02:44:59;;;;;;;58.30;33.08;;;;;;;2.36;83.62;103162.97;4920815;29;20171;-73
2022/03/21 02:47:45;;;;;;;60.22;32.65;;;;;;;2.55;84.05;103155.41;4906516;29;20027;-73
2022/03/21 02:50:55;;;;;;;60.08;31.67;;;;;;;2.33;87.14;103154.19;4920476;29;20036;-74
2022/03/21 02:53:41;;;;;;;60.80;32.08;;;;;;;2.00;89.44;103163.53;4906717;29;20039;-73
2022/03/21 02:56:26;;;;;;;55.42;30.52;;;;;;;1.96;92.15;103165.88;4906752;29;20355;-72
2022/03/21 02:59:12;;;;;;;57.40;30.85;;;;;;;2.55;85.82;103162.28;4920220;29;20021;-73
2022/03/21 03:01:58;;;;;;;59.53;30.85;;;;;;;2.59;85.38;103165.13;4920599;29;20067;-73
2022/03/21 03:04:44;;;;;;;59.53;33.03;;;;;;;2.53;83.52;103162.19;4920049;29;20043;-73
2022/03/21 03:07:29;;;;;;;58.53;33.60;;;;;;;2.63;82.31;103161.00;4919903;29;20114;-73
2022/03/21 03:10:15;;;;;;;59.20;31.60;;;;;;;2.48;83.12;103173.09;4920371;29;20099;-72
2022/03/21 03:13:01;;;;;;;55.65;30.75;;;;;;;2.38;83.16;103165.66;4905691;29;20449;-73
2022/03/21 03:15:50;;;;;;;55.67;28.38;;;;;;;2.51;78.32;103178.44;4906154;29;20118;-72
2022/03/21 03:18:35;;;;;;;54.78;29.65;;;;;;;2.80;73.88;103175.72;4919653;29;20031;-73
2022/03/21 03:21:25;;;;;;;50.28;29.13;;;;;;;2.25;73.79;103176.16;4906279;29;20038;-73
2022/03/21 03:24:12;;;;;;;52.72;30.15;;;;;;;1.93;78.27;103173.47;4919567;29;20032;-72
2022/03/21 03:26:58;;;;;;;60.35;31.38;;;;;;;2.03;78.29;103174.06;4919748;29;20032;-72
2022/03/21 03:29:43;;;;;;;61.63;31.40;;;;;;;2.00;75.56;103166.13;4919402;29;20393;-73
2022/03/21 03:32:29;;;;;;;49.97;26.90;;;;;;;2.22;70.91;103174.28;4920498;29;20039;-72
2022/03/21 03:35:15;;;;;;;45.75;25.08;;;;;;;2.31;66.99;103185.13;4919727;29;20087;-73
2022/03/21 03:38:02;;;;;;;43.25;23.92;;;;;;;2.01;66.19;103173.06;4919563;29;20440;-73
2022/03/21 03:40:48;;;;;;;42.15;23.48;;;;;;;1.48;68.11;103174.31;4905580;29;20024;-74
2022/03/21 03:43:34;;;;;;;43.33;24.30;;;;;;;1.10;71.25;103178.03;4918279;29;20035;-73
2022/03/21 03:46:19;;;;;;;44.83;24.50;;;;;;;1.18;72.23;103172.53;4919624;29;20075;-72
2022/03/21 03:49:05;;;;;;;45.55;23.08;;;;;;;0.96;73.18;103178.91;4919569;29;20040;-74
2022/03/21 03:51:51;;;;;;;42.35;22.65;;;;;;;0.70;75.53;103176.41;4919202;29;20039;-75
2022/03/21 03:54:37;;;;;;;49.88;25.35;;;;;;;0.91;72.82;103183.78;4919129;29;20481;-74
2022/03/21 03:57:22;;;;;;;45.30;24.77;;;;;;;1.15;72.50;103186.91;4919225;29;20043;-74
2022/03/21 04:00:09;;;;;;;51.45;25.25;;;;;;;0.85;72.24;103183.41;4919635;29;20035;-74
2022/03/21 04:05:59;;;;;;;44.38;24.42;;;;;;;0.60;74.95;103181.81;4918991;29;20107;-73
2022/03/21 04:08:46;;;;;;;46.13;24.35;;;;;;;0.53;74.79;103195.13;4918504;29;20028;-73
2022/03/21 04:11:32;;;;;;;45.60;25.05;;;;;;;0.64;73.28;103184.66;4905351;29;20066;-74
2022/03/21 04:14:18;;;;;;;47.47;25.70;;;;;;;0.35;75.27;103192.28;4918712;29;20056;-73
2022/03/21 04:17:03;;;;;;;47.72;25.45;;;;;;;0.85;73.22;103190.25;4905558;29;20035;-73
2022/03/21 04:19:49;;;;;;;46.90;24.48;;;;;;;0.64;74.45;103199.28;4919210;29;20431;-74
2022/03/21 04:22:36;;;;;;;40.88;23.70;;;;;;;0.71;77.11;103189.41;4918935;29;20163;-73
2022/03/21 04:25:22;;;;;;;44.40;23.45;;;;;;;0.86;78.79;103200.69;4905272;29;20075;-73
2022/03/21 04:28:09;;;;;;;40.83;22.95;;;;;;;0.30;85.98;103195.38;4919302;29;20063;-72
2022/03/21 04:30:55;;;;;;;43.33;23.52;;;;;;;0.57;86.95;103204.84;4919122;29;20028;-74
2022/03/21 04:33:41;;;;;;;41.63;22.92;;;;;;;0.39;90.09;103194.25;4905179;29;20028;-73
2022/03/21 04:36:28;;;;;;;42.20;22.65;;;;;;;0.53;92.25;103205.44;4918910;29;20354;-72
2022/03/21 04:39:13;;;;;;;46.20;22.73;;;;;;;0.66;92.23;103210.56;4919063;29;20036;-73
2022/03/21 04:42:00;;;;;;;42.50;22.48;;;;;;;0.80;93.94;103205.44;4918670;29;20090;-73
2022/03/21 04:44:48;;;;;;;45.55;23.08;;;;;;;0.67;94.02;103215.81;4905254;29;20098;-73
2022/03/21 04:47:34;;;;;;;44.50;23.23;;;;;;;0.67;97.01;103214.91;4905005;29;20036;-73
2022/03/21 04:50:20;;;;;;;46.03;24.25;;;;;;;0.65;97.66;103212.28;4905944;29;20040;-73
2022/03/21 04:53:10;;;;;;;45.90;24.08;;;;;;;0.57;100.00;103208.31;4918631;29;20043;-74
2022/03/21 04:55:56;;;;;;;47.88;25.02;;;;;;;0.73;98.47;103208.47;4921275;29;20028;-74
2022/03/21 04:58:42;;;;;;;55.47;27.10;;;;;;;0.69;95.52;103210.75;4922608;29;20035;-73
2022/03/21 05:01:27;;;;;;;55.42;28.23;;;;;;;0.74;95.56;103215.41;4908353;29;20034;-74
2022/03/21 05:04:14;;;;;;;53.33;28.25;;;;;;;0.86;95.11;103213.56;4922324;29;20046;-73
2022/03/21 05:07:00;;;;;;;50.20;27.23;;;;;;;0.91;96.63;103208.69;4921482;29;20023;-73
2022/03/21 05:09:48;;;;;;;59.28;28.98;;;;;;;0.83;97.74;103207.31;4922132;29;20043;-72
2022/03/21 05:12:33;;;;;;;54.13;28.75;;;;;;;0.86;98.44;103207.50;4921508;29;20036;-73
2022/03/21 05:15:19;;;;;;;54.00;28.95;;;;;;;0.91;91.66;103206.09;4907894;29;20052;-73
2022/03/21 05:18:05;;;;;;;63.08;31.35;;;;;;;1.02;90.82;103210.22;4907619;29;20111;-72
2022/03/21 05:20:51;;;;;;;71.68;35.40;;;;;;;1.11;89.09;103218.50;4923155;29;20039;-73
2022/03/21 05:35:52;;;;;;;75.18;38.60;;;;;;;1.80;79.15;103218.41;4922050;29;20107;-74
2022/03/21 05:35:55;;;;;;;84.32;40.67;;;;;;;2.31;77.02;103217.84;4921483;29;20111;-73
2022/03/21 05:38:41;;;;;;;86.05;40.83;;;;;;;2.28;74.81;103218.59;4922026;29;20087;-72
2022/03/21 05:41:27;;;;;;;77.65;37.75;;;;;;;2.46;72.72;103217.03;4920846;29;20476;-72
2022/03/21 05:44:13;;;;;;;79.10;39.08;;;;;;;3.02;70.79;103214.88;4922041;29;20071;-74
2022/03/21 05:46:59;;;;;;;75.70;38.28;;;;;;;2.67;68.17;103227.63;4920540;29;20024;-73
2022/03/21 05:49:44;;;;;;;73.55;37.00;;;;;;;3.11;66.52;103224.03;4921417;29;20035;-73
2022/03/21 05:52:30;;;;;;;68.15;34.67;;;;;;;2.96;67.02;103223.22;4921361;29;20044;-74
2022/03/21 05:55:16;;;;;;;63.17;33.45;;;;;;;3.28;65.46;103217.13;4920620;29;20019;-73
2022/03/21 05:58:02;;;;;;;64.80;34.33;;;;;;;3.41;64.33;103220.41;4908478;29;20103;-71
2022/03/21 06:00:47;;;;;;;63.38;34.50;;;;;;;3.37;64.12;103218.47;4920629;29;20421;-73
2022/03/21 06:03:34;;;;;;;70.50;37.38;;;;;;;3.08;63.46;103216.09;4921650;29;20043;-74
2022/03/21 06:06:21;;;;;;;77.97;38.00;;;;;;;3.52;62.99;103224.44;4906292;29;20403;-74
2022/03/21 06:09:07;;;;;;;73.38;37.97;;;;;;;3.62;63.90;103215.44;4920431;29;20578;-72
2022/03/21 06:11:52;;;;;;;77.05;41.75;;;;;;;3.70;64.46;103219.31;4920903;29;20291;-73
2022/03/21 06:14:38;;;;;;;73.57;38.10;;;;;;;3.92;65.42;103222.13;4920856;29;20091;-72
2022/03/21 06:17:24;;;;;;;69.55;36.53;;;;;;;3.69;67.71;103218.41;4907269;29;20039;-74
2022/03/21 06:20:12;;;;;;;72.90;37.35;;;;;;;3.95;66.58;103223.16;4921252;29;20020;-73
2022/03/21 06:22:58;;;;;;;63.58;35.00;;;;;;;4.00;67.73;103219.13;4907084;29;20122;-73
2022/03/21 06:25:44;;;;;;;55.67;31.58;;;;;;;3.71;66.20;103224.56;4907666;29;20467;-72
2022/03/21 06:28:30;;;;;;;62.10;32.70;;;;;;;4.26;65.97;103225.56;4907278;29;20070;-73
2022/03/21 06:31:16;;;;;;;57.50;31.05;;;;;;;4.33;64.10;103228.50;4906597;29;20417;-72
2022/03/21 06:34:03;;;;;;;52.30;28.15;;;;;;;4.51;61.65;103226.75;4906784;29;20032;-73
2022/03/21 06:36:49;;;;;;;46.33;25.85;;;;;;;4.89;60.08;103228.53;4920483;29;20043;-73
2022/03/21 06:39:35;;;;;;;61.25;35.42;;;;;;;4.38;58.84;103228.75;4920567;29;20095;-74
2022/03/21 06:42:21;;;;;;;55.00;29.33;;;;;;;4.20;57.58;103233.03;4920331;29;20517;-72
2022/03/21 06:45:07;;;;;;;48.17;26.67;;;;;;;4.22;56.54;103234.00;4921504;29;20040;-73
2022/03/21 06:47:53;;;;;;;47.75;28.13;;;;;;;4.49;56.36;103231.00;4920170;29;20126;-72
2022/03/21 06:50:39;;;;;;;52.88;26.63;;;;;;;4.62;56.11;103230.75;4906533;29;20039;-73
2022/03/21 06:53:25;;;;;;;49.08;26.15;;;;;;;4.56;55.30;103225.31;4920343;29;20028;-73
2022/03/21 06:56:11;;;;;;;48.97;28.33;;;;;;;4.59;55.46;103238.41;4920260;29;20024;-73
2022/03/21 06:58:56;;;;;;;53.08;27.08;;;;;;;4.75;55.79;103230.50;4920244;29;20075;-74
2022/03/21 07:01:42;;;;;;;52.38;27.52;;;;;;;5.42;55.48;103238.72;4920621;29;20091;-73
2022/03/21 07:04:28;;;;;;;49.95;26.98;;;;;;;5.20;54.78;103232.56;4920657;29;20457;-73
2022/03/21 07:07:13;;;;;;;48.45;26.70;;;;;;;5.66;54.75;103238.03;4919868;29;20094;-72
2022/03/21 07:10:00;;;;;;;50.47;25.98;;;;;;;4.82;54.75;103242.06;4920551;29;20056;-74
2022/03/21 07:12:46;;;;;;;44.30;25.63;;;;;;;5.38;53.87;103239.41;4919813;29;20059;-74
2022/03/21 07:15:32;;;;;;;42.60;24.65;;;;;;;5.12;53.29;103244.34;4920966;29;20047;-72
2022/03/21 07:18:18;;;;;;;42.85;24.52;;;;;;;4.82;53.41;103242.06;4905779;29;20035;-73
2022/03/21 07:21:04;;;;;;;45.90;25.30;;;;;;;5.18;52.90;103239.41;4920032;29;20024;-73
2022/03/21 07:23:50;;;;;;;43.63;24.02;;;;;;;5.58;52.15;103236.84;4919641;29;20392;-73
2022/03/21 07:26:37;;;;;;;54.63;26.25;;;;;;;5.71;51.49;103238.25;4920803;29;20056;-73
2022/03/21 07:29:23;;;;;;;48.00;26.13;;;;;;;5.92;50.92;103240.06;4905913;29;20111;-73
2022/03/21 07:32:09;;;;;;;46.25;25.27;;;;;;;6.18;50.41;103239.41;4919653;29;20028;-73
2022/03/21 07:34:55;;;;;;;39.38;24.77;;;;;;;6.19;50.19;103240.31;4919895;29;20036;-73
2022/03/21 07:37:50;;;;;;;49.47;24.95;;;;;;;6.28;49.75;103240.66;4919460;29;20024;-72
2022/03/21 07:40:36;;;;;;;41.45;24.02;;;;;;;6.48;49.74;103242.34;4919438;29;20155;-73
2022/03/21 07:43:22;;;;;;;43.85;24.55;;;;;;;5.66;50.48;103234.56;4905234;29;20036;-73
2022/03/21 07:49:12;;;;;;;63.90;36.47;;;;;;;6.95;49.34;103230.28;4919078;29;20044;-73
2022/03/21 07:52:00;;;;;;;42.03;23.95;;;;;;;6.18;48.56;103234.22;4918750;29;20032;-73
2022/03/21 07:54:53;;;;;;;49.28;26.52;;;;;;;6.72;48.63;103227.66;4919250;29;20437;-73
2022/03/21 07:57:39;;;;;;;38.83;23.88;;;;;;;6.71;48.45;103231.09;4919374;29;20051;-73
2022/03/21 08:00:26;;;;;;;41.15;23.75;;;;;;;7.08;48.78;103221.22;4905591;29;20035;-72
2022/03/21 08:03:12;;;;;;;42.08;23.77;;;;;;;7.45;47.66;103224.31;4920035;29;20370;-73
2022/03/21 08:05:59;;;;;;;43.40;25.00;;;;;;;7.41;47.83;103217.19;4905138;29;20047;-73
2022/03/21 08:08:45;;;;;;;46.47;23.85;;;;;;;7.42;46.88;103217.25;4919023;29;20068;-73
2022/03/21 08:11:30;;;;;;;42.78;22.65;;;;;;;7.39;47.12;103211.06;4919439;29;20027;-74
2022/03/21 08:14:17;;;;;;;43.50;24.23;;;;;;;7.71;46.69;103219.13;4918580;29;20048;-74
2022/03/21 08:17:04;;;;;;;35.88;22.13;;;;;;;7.53;46.36;103217.63;4918806;29;20063;-73
2022/03/21 08:19:49;;;;;;;39.20;21.92;;;;;;;8.65;45.17;103217.88;4919376;29;20024;-75
2022/03/21 08:22:35;;;;;;;43.50;22.98;;;;;;;8.51;45.21;103219.16;4919284;29;20040;-74
2022/03/21 08:25:21;;;;;;;40.20;23.55;;;;;;;8.76;44.74;103211.25;4904747;29;20057;-72
2022/03/21 08:28:09;;;;;;;34.90;22.52;;;;;;;9.16;44.53;103214.13;4919377;29;20068;-74
2022/03/21 08:30:55;;;;;;;40.25;23.60;;;;;;;9.16;43.59;103206.28;4918571;29;20399;-74
2022/03/21 08:33:41;;;;;;;40.13;21.95;;;;;;;9.66;43.02;103203.31;4905024;29;20451;-73
2022/03/21 08:36:27;;;;;;;39.80;24.50;;;;;;;9.99;42.82;103201.53;4918080;29;20043;-74
2022/03/21 08:39:13;;;;;;;36.13;22.20;;;;;;;10.02;42.14;103209.47;4918888;29;20361;-74
2022/03/21 08:41:58;;;;;;;32.53;21.25;;;;;;;9.93;42.90;103204.03;4919049;29;20076;-74
2022/03/21 08:44:45;;;;;;;35.15;21.23;;;;;;;10.22;42.26;103203.00;4919689;29;20030;-74
2022/03/21 08:47:31;;;;;;;36.58;20.88;;;;;;;10.21;41.68;103198.63;4918061;29;20135;-73
2022/03/21 08:50:17;;;;;;;30.17;19.67;;;;;;;10.75;40.25;103189.34;4918404;29;20043;-73
2022/03/21 08:53:03;;;;;;;30.38;20.05;;;;;;;10.66;40.42;103191.78;4919114;29;20040;-74
2022/03/21 08:55:48;;;;;;;37.47;20.17;;;;;;;10.96;39.50;103188.91;4918964;29;20091;-74
2022/03/21 08:58:34;;;;;;;32.20;20.10;;;;;;;10.97;38.85;103186.31;4919181;29;20097;-74
2022/03/21 09:01:20;;;;;;;29.00;18.63;;;;;;;10.57;39.31;103181.09;4918592;29;20028;-74
2022/03/21 09:04:06;;;;;;;30.52;17.25;;;;;;;10.52;38.39;103182.72;4918419;29;20025;-73
2022/03/21 09:06:52;;;;;;;106.72;65.82;;;;;;;10.90;38.07;103175.66;4905031;29;20058;-74
2022/03/21 09:09:37;;;;;;;32.38;20.88;;;;;;;10.47;37.42;103183.47;4918841;29;20111;-74
2022/03/21 09:12:23;;;;;;;24.20;16.42;;;;;;;10.92;37.40;103176.56;4904497;29;20058;-72
2022/03/21 09:15:10;;;;;;;27.60;17.38;;;;;;;10.70;37.75;103177.00;4918153;29;20048;-74
2022/03/21 09:17:55;;;;;;;24.35;17.08;;;;;;;10.55;38.23;103176.66;4918933;29;20112;-74
2022/03/21 09:20:41;;;;;;;23.98;15.40;;;;;;;10.58;37.52;103179.34;4919341;29;20028;-74
2022/03/21 09:23:27;;;;;;;23.48;15.80;;;;;;;10.98;37.23;103172.38;4918026;29;20028;-73
2022/03/21 09:26:13;;;;;;;33.25;15.40;;;;;;;11.05;36.67;103170.75;4918248;29;20493;-74
2022/03/21 09:29:05;;;;;;;21.02;12.35;;;;;;;10.96;35.21;103163.56;4904559;29;20036;-73
2022/03/21 09:31:50;;;;;;;20.65;13.57;;;;;;;11.10;35.67;103156.84;4918164;29;20028;-73
2022/03/21 09:34:39;;;;;;;29.83;17.30;;;;;;;10.98;35.52;103148.75;4904647;29;20453;-73
2022/03/21 09:37:25;;;;;;;25.90;16.60;;;;;;;10.81;36.17;103154.50;4904102;29;20106;-74
2022/03/21 09:40:12;;;;;;;25.45;15.70;;;;;;;11.06;36.66;103148.88;4918641;29;20028;-73
2022/03/21 09:42:58;;;;;;;24.95;15.82;;;;;;;10.67;37.27;103148.09;4907511;29;20402;-74
2022/03/21 09:45:44;;;;;;;25.58;16.77;;;;;;;11.14;36.60;103152.53;4921741;29;20028;-73
2022/03/21 09:48:32;;;;;;;27.88;16.33;;;;;;;11.05;37.40;103145.38;4921502;29;20532;-73
2022/03/21 09:51:27;;;;;;;28.00;16.55;;;;;;;11.19;36.72;103146.53;4908705;29;20024;-73
2022/03/21 09:54:13;;;;;;;25.23;15.77;;;;;;;11.29;36.87;103137.94;4908252;29;20095;-72
2022/03/21 09:57:03;;;;;;;24.30;15.30;;;;;;;10.89;36.58;103132.81;4908060;29;20114;-73
2022/03/21 09:59:50;;;;;;;23.90;15.95;;;;;;;10.94;36.75;103125.03;4921301;29;20127;-73
2022/03/21 10:02:35;;;;;;;24.65;16.05;;;;;;;10.86;36.05;103130.16;4921851;29;20127;-74
2022/03/21 10:05:35;;;;;;;24.80;15.38;;;;;;;10.93;36.23;103132.00;4907544;29;20345;-74
2022/03/21 10:08:22;;;;;;;22.75;15.55;;;;;;;10.89;36.56;103118.84;4921480;29;20120;-73
2022/03/21 10:11:07;;;;;;;26.52;14.88;;;;;;;11.00;35.96;103117.28;4921869;29;20137;-74
2022/03/21 10:13:53;;;;;;;22.58;15.00;;;;;;;11.26;35.66;103116.03;4920801;29;20445;-73
2022/03/21 10:16:53;;;;;;;22.75;14.27;;;;;;;11.16;34.89;103109.72;4921737;29;20039;-73
2022/03/21 10:19:46;;;;;;;27.48;13.93;;;;;;;11.47;35.00;103104.16;4920899;29;20020;-74
2022/03/21 10:22:32;;;;;;;17.88;11.73;;;;;;;11.65;33.92;103104.47;4920831;29;20032;-73
2022/03/21 10:25:20;;;;;;;18.85;12.68;;;;;;;11.18;34.21;103104.50;4920540;29;20418;-74
2022/03/21 10:28:06;;;;;;;17.63;12.18;;;;;;;10.76;34.29;103101.97;4921519;29;20123;-74
2022/03/21 10:30:52;;;;;;;21.77;12.07;;;;;;;10.87;34.28;103089.06;4907402;29;20043;-74
2022/03/21 10:33:38;;;;;;;23.73;14.13;;;;;;;11.71;33.93;103096.72;4920966;29;20024;-73
2022/03/21 10:36:24;;;;;;;18.45;12.18;;;;;;;11.44;33.74;103092.72;4921105;29;20062;-74
2022/03/21 10:39:12;;;;;;;19.52;12.43;;;;;;;11.79;33.48;103079.34;4920478;29;20028;-74
2022/03/21 10:42:01;;;;;;;21.85;13.70;;;;;;;11.75;32.99;103089.75;4921066;29;20175;-74
2022/03/21 10:44:54;;;;;;;20.25;11.82;;;;;;;11.62;32.42;103075.53;4906804;29;20358;-73
2022/03/21 10:47:51;;;;;;;17.83;11.70;;;;;;;11.31;32.98;103073.25;4920263;29;20028;-73
2022/03/21 10:50:43;;;;;;;22.75;11.90;;;;;;;11.87;32.99;103061.06;4906853;29;20036;-74
2022/03/21 10:53:36;;;;;;;18.60;11.70;;;;;;;11.68;33.14;103053.75;4920254;29;20027;-74
2022/03/21 10:56:26;;;;;;;20.50;12.73;;;;;;;11.83;33.13;103052.25;4921695;29;20130;-74
2022/03/21 10:59:16;;;;;;;29.38;14.57;;;;;;;11.71;33.15;103054.69;4920398;29;20024;-73
2022/03/21 11:02:11;;;;;;;50.78;33.28;;;;;;;12.02;33.64;103042.88;4920447;29;20035;-74
2022/03/21 11:04:56;;;;;;;23.00;12.73;;;;;;;11.86;32.87;103047.03;4920639;29;20138;-74
2022/03/21 11:07:44;;;;;;;17.30;10.80;;;;;;;11.23;32.97;103039.88;4920003;29;20416;-74
2022/03/21 11:10:30;;;;;;;22.08;12.65;;;;;;;12.04;32.67;103039.41;4920631;29;20468;-74
2022/03/21 11:13:17;;;;;;;19.80;11.70;;;;;;;12.45;32.29;103029.41;4919403;29;20032;-73
2022/03/21 11:16:03;;;;;;;19.23;11.40;;;;;;;11.95;32.17;103020.00;4921009;29;20079;-74
2022/03/21 11:18:51;;;;;;;17.23;11.18;;;;;;;12.43;32.17;103025.88;4905969;29;20032;-74
2022/03/21 11:21:37;;;;;;;16.80;11.15;;;;;;;12.28;32.54;103010.81;4919853;29;20071;-74
2022/03/21 11:24:23;;;;;;;17.00;11.63;;;;;;;11.68;32.47;103011.72;4919613;29;20032;-73
2022/03/21 11:27:31;;;;;;;19.85;11.93;;;;;;;11.82;32.63;103005.81;4920265;29;20035;-74
2022/03/21 11:30:32;;;;;;;18.05;11.07;;;;;;;12.53;32.05;102994.44;4906194;29;20028;-73
2022/03/21 11:33:24;;;;;;;16.00;10.35;;;;;;;12.22;31.57;102994.09;4919799;29;20027;-73
2022/03/21 11:36:12;;;;;;;16.65;10.65;;;;;;;12.61;31.12;102981.34;4905724;29;20028;-74
2022/03/21 11:39:00;;;;;;;19.42;10.48;;;;;;;12.35;30.96;102982.84;4919482;29;20028;-74
2022/03/21 11:42:07;;;;;;;14.98;10.15;;;;;;;13.18;30.27;102969.66;4919849;29;20032;-72
2022/03/21 11:45:22;;;;;;;21.42;13.55;;;;;;;12.72;30.25;102971.84;4919549;29;20063;-73
2022/03/21 11:48:17;;;;;;;15.50;10.35;;;;;;;12.91;30.35;102960.63;4919836;29;20039;-74
2022/03/21 11:51:18;;;;;;;13.73;9.43;;;;;;;12.47;30.01;102965.47;4919609;29;20096;-74
2022/03/21 11:54:07;;;;;;;20.30;11.52;;;;;;;12.65;30.89;102947.22;4919504;29;20504;-73
2022/03/21 11:57:04;;;;;;;15.82;9.65;;;;;;;12.13;30.60;102952.81;4905572;29;20044;-74
2022/03/21 11:59:52;;;;;;;15.35;8.60;;;;;;;12.56;29.10;102956.78;4905896;29;20038;-73
2022/03/21 12:02:38;;;;;;;13.68;7.95;;;;;;;12.50;30.42;102947.06;4919785;29;20033;-73
2022/03/21 12:05:37;;;;;;;13.45;7.88;;;;;;;12.79;29.72;102943.00;4904978;29;20051;-74
2022/03/21 12:08:38;;;;;;;10.88;7.82;;;;;;;12.33;29.41;102950.38;4920098;29;20040;-73
2022/03/21 12:11:39;;;;;;;12.48;8.50;;;;;;;12.33;29.42;102940.75;4905937;29;20032;-73
2022/03/21 12:14:37;;;;;;;13.10;8.60;;;;;;;13.41;28.35;102932.94;4919533;29;20055;-73
2022/03/21 12:17:22;;;;;;;10.13;7.38;;;;;;;13.68;27.04;102926.09;4919680;29;20027;-73
2022/03/21 12:20:10;;;;;;;11.77;7.05;;;;;;;12.71;27.63;102934.16;4920121;29;20068;-74
2022/03/21 12:23:14;;;;;;;11.52;7.30;;;;;;;12.64;28.44;102934.06;4893290;29;20035;-74
2022/03/21 12:26:00;;;;;;;15.18;7.38;;;;;;;13.38;27.72;102927.69;4906362;29;20032;-73
2022/03/21 12:32:27;;;;;;;17.67;12.35;;;;;;;13.49;28.38;102918.97;4918742;29;20024;-73
2022/03/21 12:35:31;;;;;;;11.40;8.57;;;;;;;13.38;27.28;102906.63;4893610;29;20476;-73
2022/03/21 12:38:23;;;;;;;10.73;6.50;;;;;;;13.10;27.29;102907.31;4919778;29;20139;-74
2022/03/21 12:41:10;;;;;;;14.55;7.28;;;;;;;13.64;27.52;102912.88;4919391;29;20118;-74
2022/03/21 12:43:56;;;;;;;12.20;6.68;;;;;;;12.91;26.85;102903.59;4919076;29;20442;-74
2022/03/21 12:46:43;;;;;;;14.50;7.32;;;;;;;13.04;27.02;102901.97;4919891;28;20039;-74
2022/03/21 12:49:49;;;;;;;12.07;7.85;;;;;;;13.32;26.86;102898.66;4918349;29;20112;-73
2022/03/21 12:52:34;;;;;;;10.13;6.93;;;;;;;12.87;26.73;102893.91;4918977;29;20032;-74
2022/03/21 12:55:21;;;;;;;12.30;7.65;;;;;;;13.03;27.12;102895.81;4919379;28;20063;-73
2022/03/21 12:58:09;;;;;;;13.15;7.03;;;;;;;13.20;26.85;102902.13;4919678;29;20429;-74
2022/03/21 13:00:57;;;;;;;11.45;7.25;;;;;;;13.00;27.02;102894.94;4919025;29;20406;-73
2022/03/21 13:03:44;;;;;;;15.98;7.70;;;;;;;13.33;26.73;102880.25;4919532;28;20074;-74
2022/03/21 13:12:43;;;;;;;11.57;7.97;;;;;;;13.18;26.87;102880.16;4918177;29;20418;-73
2022/03/21 13:15:29;;;;;;;12.50;8.18;;;;;;;12.52;26.94;102874.34;4918763;29;20075;-74